Time;durP1;ratioP1;P1;durP2;ratioP2;P2;SDS_P1;SDS_P2;PMS_P1;PMS_P2;Temp;Humidity;BMP_temperature;BMP_pressure;BME280_temperature;BME280_humidity;BME280_pressure;Samples;Min_cycle;Max_cycle;Signal;HPM_P1;HPM_P2
2022/04/25 00:00:50;;;;;;;;;24.00;22.50;;;;;;;;5112573;27;51008;-53
2022/04/25 00:03:15;;;;;;;;;23.75;22.00;;;;;;;;5111127;27;51706;-49
2022/04/25 00:05:40;;;;;;;;;20.75;19.75;;;;;;;;5104690;27;51128;-53
2022/04/25 00:08:06;;;;;;;;;20.25;19.25;;;;;;;;5102681;27;50958;-51
2022/04/25 00:10:32;;;;;;;;;20.25;19.75;;;;;;;;5108889;27;51271;-56
2022/04/25 00:12:57;;;;;;;;;21.50;20.50;;;;;;;;5109478;27;52640;-54
2022/04/25 00:15:23;;;;;;;;;18.75;18.75;;;;;;;;5120898;27;51139;-55
2022/04/25 00:17:48;;;;;;;;;20.75;17.00;;;;;;;;5103224;27;51079;-53
2022/04/25 00:20:13;;;;;;;;;21.00;18.50;;;;;;;;5107948;27;51067;-54
2022/04/25 00:22:39;;;;;;;;;20.75;19.75;;;;;;;;5107487;27;52775;-53
2022/04/25 00:25:04;;;;;;;;;20.00;17.00;;;;;;;;5116258;27;51097;-56
2022/04/25 00:27:30;;;;;;;;;19.25;19.00;;;;;;;;5113651;27;51200;-52
2022/04/25 00:29:55;;;;;;;;;24.75;23.75;;;;;;;;5114527;27;51034;-54
2022/04/25 00:32:21;;;;;;;;;22.50;21.75;;;;;;;;5114151;27;51759;-55
2022/04/25 00:34:46;;;;;;;;;24.25;23.00;;;;;;;;5124550;27;50977;-54
2022/04/25 00:37:11;;;;;;;;;29.75;28.75;;;;;;;;5113314;27;51160;-57
2022/04/25 00:39:37;;;;;;;;;30.25;29.75;;;;;;;;5105437;27;51201;-54
2022/04/25 00:42:02;;;;;;;;;30.50;27.50;;;;;;;;5108880;27;51977;-55
2022/04/25 00:44:27;;;;;;;;;29.75;29.00;;;;;;;;5112687;27;51160;-54
2022/04/25 00:46:53;;;;;;;;;27.75;24.25;;;;;;;;5112127;27;54278;-57
2022/04/25 00:49:19;;;;;;;;;33.00;30.75;;;;;;;;5109945;27;51399;-56
2022/04/25 00:51:44;;;;;;;;;33.50;32.00;;;;;;;;5112433;27;50987;-55
2022/04/25 00:54:10;;;;;;;;;45.25;38.75;;;;;;;;5113176;27;51034;-54
2022/04/25 00:56:35;;;;;;;;;41.50;35.75;;;;;;;;5109168;27;51110;-54
2022/04/25 00:59:01;;;;;;;;;39.50;33.00;;;;;;;;5106049;27;51306;-54
2022/04/25 01:01:27;;;;;;;;;36.50;34.00;;;;;;;;5111289;27;51439;-54
2022/04/25 01:03:53;;;;;;;;;33.75;32.00;;;;;;;;5104164;27;52739;-55
2022/04/25 01:06:18;;;;;;;;;34.50;31.75;;;;;;;;5112669;27;51655;-54
2022/04/25 01:08:43;;;;;;;;;25.25;24.00;;;;;;;;5105437;27;51366;-52
2022/04/25 01:11:09;;;;;;;;;22.75;21.50;;;;;;;;5108244;27;51991;-54
2022/04/25 01:13:34;;;;;;;;;20.75;20.00;;;;;;;;5114574;27;51234;-53
2022/04/25 01:16:00;;;;;;;;;17.50;17.50;;;;;;;;5115674;27;51095;-56
2022/04/25 01:18:25;;;;;;;;;17.75;16.25;;;;;;;;5117398;27;51159;-55
2022/04/25 01:20:52;;;;;;;;;19.50;19.00;;;;;;;;5108832;27;51112;-55
2022/04/25 01:28:47;;;;;;;;;18.25;17.50;;;;;;;;5113223;27;51061;-55
2022/04/25 01:31:12;;;;;;;;;18.00;17.25;;;;;;;;5083872;27;51181;-54
2022/04/25 01:33:37;;;;;;;;;17.75;15.75;;;;;;;;5113225;27;51185;-53
2022/04/25 01:36:03;;;;;;;;;21.00;18.25;;;;;;;;5111112;27;51360;-53
2022/04/25 01:38:28;;;;;;;;;18.00;17.25;;;;;;;;5102753;27;51122;-55
2022/04/25 01:40:53;;;;;;;;;17.25;16.25;;;;;;;;5084887;27;51289;-54
2022/04/25 01:43:19;;;;;;;;;23.50;17.25;;;;;;;;5111517;27;51140;-54
2022/04/25 01:45:44;;;;;;;;;17.75;15.00;;;;;;;;5089409;27;51251;-55
2022/04/25 01:48:09;;;;;;;;;18.00;17.00;;;;;;;;5091935;27;52807;-52
2022/04/25 01:50:34;;;;;;;;;16.75;16.25;;;;;;;;5110693;27;51802;-50
2022/04/25 01:52:59;;;;;;;;;16.75;16.50;;;;;;;;5094251;27;51238;-52
2022/04/25 01:55:25;;;;;;;;;19.00;17.75;;;;;;;;5112412;27;50945;-54
2022/04/25 01:57:50;;;;;;;;;18.75;17.00;;;;;;;;5110947;27;50791;-54
2022/04/25 02:00:15;;;;;;;;;21.00;17.75;;;;;;;;5109545;27;51269;-54
2022/04/25 02:02:40;;;;;;;;;19.25;16.50;;;;;;;;5110900;27;51151;-57
2022/04/25 02:05:06;;;;;;;;;17.00;16.00;;;;;;;;5111292;27;51340;-54
2022/04/25 02:07:32;;;;;;;;;15.00;14.50;;;;;;;;5102820;27;51218;-55
2022/04/25 02:09:57;;;;;;;;;18.00;16.25;;;;;;;;5098807;27;52367;-52
2022/04/25 02:12:22;;;;;;;;;20.00;18.00;;;;;;;;5109940;27;50953;-54
2022/04/25 02:14:48;;;;;;;;;20.25;19.00;;;;;;;;5111746;27;51161;-55
2022/04/25 02:17:13;;;;;;;;;18.75;18.25;;;;;;;;5109259;27;51731;-55
2022/04/25 02:19:39;;;;;;;;;17.50;16.00;;;;;;;;5108093;27;52071;-55
2022/04/25 02:22:05;;;;;;;;;17.00;14.75;;;;;;;;5110407;27;51216;-51
2022/04/25 02:24:31;;;;;;;;;19.00;18.50;;;;;;;;5089449;27;51027;-53
2022/04/25 02:26:56;;;;;;;;;18.75;17.50;;;;;;;;5090745;27;52496;-55
2022/04/25 02:29:22;;;;;;;;;20.50;19.75;;;;;;;;5112789;27;52264;-50
2022/04/25 02:31:47;;;;;;;;;18.00;17.00;;;;;;;;5111978;27;51179;-50
2022/04/25 02:34:13;;;;;;;;;23.75;22.00;;;;;;;;5106927;27;51110;-54
2022/04/25 02:36:38;;;;;;;;;21.50;18.00;;;;;;;;5110201;27;51359;-55
2022/04/25 02:39:04;;;;;;;;;21.25;20.25;;;;;;;;5073592;27;53789;-52
2022/04/25 02:41:29;;;;;;;;;20.00;19.75;;;;;;;;5111719;27;50924;-53
2022/04/25 02:43:54;;;;;;;;;21.00;19.00;;;;;;;;5110283;27;51158;-54
2022/04/25 02:46:20;;;;;;;;;21.25;19.00;;;;;;;;5104195;27;51212;-55
2022/04/25 02:48:46;;;;;;;;;18.25;17.50;;;;;;;;5106693;27;52031;-54
2022/04/25 02:51:11;;;;;;;;;21.00;20.00;;;;;;;;5097999;27;51202;-53
2022/04/25 02:53:37;;;;;;;;;19.00;17.75;;;;;;;;5103919;27;51008;-54
2022/04/25 02:56:03;;;;;;;;;19.25;18.50;;;;;;;;5110659;27;50923;-49
2022/04/25 02:58:29;;;;;;;;;19.50;19.00;;;;;;;;5115604;27;50983;-54
2022/04/25 03:00:55;;;;;;;;;17.25;16.50;;;;;;;;5108314;27;51186;-53
2022/04/25 03:03:21;;;;;;;;;21.25;18.50;;;;;;;;5113985;27;51126;-50
2022/04/25 03:05:47;;;;;;;;;19.00;18.25;;;;;;;;5112042;27;50936;-55
2022/04/25 03:08:13;;;;;;;;;21.25;19.00;;;;;;;;5105051;27;51896;-57
2022/04/25 03:10:39;;;;;;;;;22.75;20.50;;;;;;;;5114215;27;50871;-54
2022/04/25 03:13:07;;;;;;;;;23.25;21.00;;;;;;;;5114250;27;50954;-53
2022/04/25 03:15:34;;;;;;;;;22.25;20.75;;;;;;;;5106016;27;51317;-54
2022/04/25 03:17:59;;;;;;;;;22.75;21.75;;;;;;;;5114659;27;51914;-54
2022/04/25 03:20:25;;;;;;;;;20.75;20.25;;;;;;;;5112816;27;50952;-54
2022/04/25 03:22:50;;;;;;;;;18.75;18.75;;;;;;;;5101926;27;51273;-54
2022/04/25 03:25:15;;;;;;;;;25.25;22.50;;;;;;;;5114957;27;51105;-54
2022/04/25 03:27:40;;;;;;;;;21.75;20.00;;;;;;;;5091518;27;52580;-55
2022/04/25 03:30:06;;;;;;;;;24.50;23.75;;;;;;;;5114318;27;51179;-51
2022/04/25 03:32:32;;;;;;;;;22.00;20.00;;;;;;;;5113074;27;51456;-53
2022/04/25 03:34:58;;;;;;;;;19.50;18.50;;;;;;;;5113251;27;51263;-52
2022/04/25 03:37:23;;;;;;;;;21.25;19.50;;;;;;;;5108435;27;51718;-51
2022/04/25 03:39:49;;;;;;;;;27.50;26.50;;;;;;;;5112336;27;51015;-54
2022/04/25 03:42:14;;;;;;;;;23.75;23.25;;;;;;;;5112251;27;51134;-54
2022/04/25 03:44:39;;;;;;;;;26.25;23.75;;;;;;;;5110279;27;51082;-54
2022/04/25 03:47:05;;;;;;;;;22.00;21.25;;;;;;;;5109037;27;52090;-54
2022/04/25 03:49:30;;;;;;;;;26.00;23.75;;;;;;;;5112766;27;50956;-55
2022/04/25 03:51:55;;;;;;;;;25.50;23.00;;;;;;;;5103560;27;51125;-53
2022/04/25 03:57:10;;;;;;;;;23.25;22.00;;;;;;;;5109412;27;51084;-52
2022/04/25 03:57:12;;;;;;;;;29.75;28.00;;;;;;;;5107830;27;51359;-55
2022/04/25 03:59:37;;;;;;;;;24.00;22.75;;;;;;;;5113456;27;50968;-54
2022/04/25 04:02:04;;;;;;;;;25.25;24.00;;;;;;;;5113328;27;51171;-54
2022/04/25 04:04:29;;;;;;;;;31.75;24.75;;;;;;;;5106336;27;51103;-54
2022/04/25 04:06:54;;;;;;;;;25.00;23.50;;;;;;;;5108787;27;52237;-52
2022/04/25 04:12:04;;;;;;;;;24.75;23.75;;;;;;;;5106905;27;51025;-54
2022/04/25 04:14:30;;;;;;;;;27.00;25.75;;;;;;;;5106993;27;51110;-53
2022/04/25 04:16:55;;;;;;;;;25.50;24.50;;;;;;;;5110609;27;52011;-55
2022/04/25 04:19:20;;;;;;;;;25.75;25.50;;;;;;;;5109562;27;51225;-53
2022/04/25 04:21:46;;;;;;;;;26.25;25.50;;;;;;;;5109782;27;50792;-54
2022/04/25 04:24:11;;;;;;;;;21.75;21.75;;;;;;;;5113372;27;51337;-54
2022/04/25 04:26:36;;;;;;;;;25.00;24.50;;;;;;;;5104676;27;52209;-54
2022/04/25 04:29:01;;;;;;;;;23.25;23.25;;;;;;;;5112705;27;51157;-54
2022/04/25 04:31:26;;;;;;;;;30.50;26.75;;;;;;;;5111495;27;51051;-53
2022/04/25 04:33:51;;;;;;;;;29.25;26.00;;;;;;;;5109535;27;51394;-54
2022/04/25 04:36:22;;;;;;;;;29.00;26.75;;;;;;;;5112857;27;52113;-52
2022/04/25 04:38:47;;;;;;;;;29.00;25.25;;;;;;;;5110814;27;51023;-54
2022/04/25 04:41:13;;;;;;;;;25.75;24.50;;;;;;;;5111413;27;51188;-55
2022/04/25 04:43:38;;;;;;;;;30.00;29.00;;;;;;;;5101307;27;50883;-52
2022/04/25 04:46:03;;;;;;;;;26.75;24.25;;;;;;;;5103739;27;52993;-53
2022/04/25 04:48:28;;;;;;;;;29.25;26.50;;;;;;;;5108021;27;51071;-53
2022/04/25 04:50:55;;;;;;;;;30.50;26.50;;;;;;;;5111751;27;51311;-53
2022/04/25 04:53:21;;;;;;;;;28.50;28.50;;;;;;;;5114180;27;51265;-53
2022/04/25 04:55:46;;;;;;;;;30.25;27.00;;;;;;;;5112692;27;51745;-56
2022/04/25 04:58:12;;;;;;;;;27.50;27.50;;;;;;;;5114501;27;51010;-53
2022/04/25 05:00:37;;;;;;;;;28.75;26.00;;;;;;;;5111490;27;51047;-57
2022/04/25 05:03:02;;;;;;;;;30.50;25.25;;;;;;;;5113840;27;52654;-55
2022/04/25 05:05:27;;;;;;;;;32.75;30.75;;;;;;;;5112081;27;51955;-55
2022/04/25 05:07:53;;;;;;;;;35.00;33.25;;;;;;;;5114245;27;50968;-55
2022/04/25 05:10:18;;;;;;;;;37.50;32.25;;;;;;;;5114300;27;51014;-54
2022/04/25 05:12:44;;;;;;;;;35.00;33.25;;;;;;;;5112181;27;51601;-55
2022/04/25 05:15:10;;;;;;;;;34.50;31.75;;;;;;;;5113497;27;51112;-55
2022/04/25 05:17:35;;;;;;;;;34.50;33.50;;;;;;;;5097942;27;51252;-54
2022/04/25 05:20:01;;;;;;;;;32.75;28.75;;;;;;;;5114044;27;50993;-54
2022/04/25 05:22:26;;;;;;;;;38.25;35.00;;;;;;;;5112433;27;51294;-55
2022/04/25 05:24:51;;;;;;;;;32.50;28.75;;;;;;;;5113655;27;53087;-55
2022/04/25 05:27:17;;;;;;;;;35.25;31.50;;;;;;;;5112353;27;51055;-54
2022/04/25 05:29:42;;;;;;;;;36.50;33.75;;;;;;;;5114186;27;51003;-54
2022/04/25 05:32:07;;;;;;;;;38.00;34.25;;;;;;;;5110733;27;51152;-55
2022/04/25 05:34:32;;;;;;;;;36.25;34.50;;;;;;;;5094139;27;52546;-55
2022/04/25 05:36:58;;;;;;;;;42.25;37.00;;;;;;;;5110853;27;51156;-56
2022/04/25 05:39:23;;;;;;;;;36.50;33.50;;;;;;;;5113683;27;51304;-54
2022/04/25 05:41:48;;;;;;;;;37.75;35.00;;;;;;;;5111881;27;51217;-52
2022/04/25 05:44:14;;;;;;;;;35.25;34.25;;;;;;;;5113018;27;52012;-50
2022/04/25 05:46:39;;;;;;;;;44.00;39.00;;;;;;;;5107635;27;51017;-49
2022/04/25 05:52:02;;;;;;;;;46.75;36.75;;;;;;;;5112472;27;50937;-52
2022/04/25 05:54:27;;;;;;;;;42.25;38.25;;;;;;;;5112480;27;51318;-49
2022/04/25 05:56:53;;;;;;;;;44.50;39.00;;;;;;;;5111767;27;50988;-53
2022/04/25 05:59:18;;;;;;;;;44.50;38.50;;;;;;;;5113314;27;50981;-54
2022/04/25 06:01:44;;;;;;;;;46.00;39.25;;;;;;;;5111982;27;51393;-54
2022/04/25 06:04:09;;;;;;;;;44.00;38.75;;;;;;;;5094146;27;51065;-53
2022/04/25 06:06:34;;;;;;;;;48.75;40.00;;;;;;;;5110184;27;51012;-53
2022/04/25 06:09:00;;;;;;;;;46.00;40.00;;;;;;;;5113663;27;51247;-51
2022/04/25 06:11:26;;;;;;;;;44.50;39.25;;;;;;;;5110535;27;51331;-54
2022/04/25 06:13:52;;;;;;;;;46.00;39.75;;;;;;;;5111211;27;51972;-54
2022/04/25 06:16:17;;;;;;;;;43.75;38.75;;;;;;;;5110546;27;51075;-52
2022/04/25 06:18:42;;;;;;;;;47.75;39.75;;;;;;;;5111566;27;51008;-53
2022/04/25 06:21:08;;;;;;;;;47.50;40.00;;;;;;;;5104599;27;51190;-54
2022/04/25 06:23:33;;;;;;;;;53.50;43.25;;;;;;;;5109293;27;51212;-54
2022/04/25 06:25:58;;;;;;;;;62.75;48.25;;;;;;;;5110661;27;51177;-57
2022/04/25 06:28:26;;;;;;;;;77.00;64.75;;;;;;;;5113665;27;50950;-54
2022/04/25 06:30:52;;;;;;;;;52.00;44.00;;;;;;;;5115095;27;51249;-53
2022/04/25 06:33:17;;;;;;;;;52.75;43.00;;;;;;;;5116001;27;51753;-53
2022/04/25 06:35:43;;;;;;;;;105.67;92.33;;;;;;;;5096807;27;51312;-55
2022/04/25 06:38:08;;;;;;;;;64.00;51.75;;;;;;;;5115479;27;51961;-54
2022/04/25 06:40:33;;;;;;;;;46.75;38.75;;;;;;;;5111145;27;51301;-55
2022/04/25 06:42:59;;;;;;;;;50.50;42.00;;;;;;;;5116253;27;50985;-55
2022/04/25 06:45:24;;;;;;;;;52.00;42.75;;;;;;;;5107514;27;51332;-54
2022/04/25 06:47:50;;;;;;;;;49.75;42.25;;;;;;;;5115518;27;51104;-55
2022/04/25 06:50:15;;;;;;;;;50.25;41.00;;;;;;;;5106510;27;51237;-55
2022/04/25 06:52:41;;;;;;;;;49.50;41.00;;;;;;;;5087032;27;53526;-54
2022/04/25 06:55:07;;;;;;;;;49.50;42.50;;;;;;;;5106741;27;50988;-53
2022/04/25 06:57:35;;;;;;;;;46.50;39.00;;;;;;;;5111084;27;51622;-54
2022/04/25 07:00:01;;;;;;;;;73.75;63.00;;;;;;;;5113327;27;50871;-52
2022/04/25 07:02:26;;;;;;;;;54.00;44.25;;;;;;;;5105903;27;52023;-55
2022/04/25 07:04:51;;;;;;;;;48.00;40.75;;;;;;;;5111812;27;51004;-52
2022/04/25 07:07:17;;;;;;;;;49.25;40.75;;;;;;;;5110176;27;51157;-52
2022/04/25 07:09:42;;;;;;;;;56.75;46.50;;;;;;;;5115850;27;51339;-55
2022/04/25 07:12:08;;;;;;;;;52.50;44.25;;;;;;;;5114874;27;51743;-54
2022/04/25 07:14:33;;;;;;;;;50.25;42.50;;;;;;;;5115304;27;51070;-55
2022/04/25 07:17:01;;;;;;;;;57.25;48.00;;;;;;;;5115426;27;51198;-53
2022/04/25 07:19:27;;;;;;;;;48.50;40.75;;;;;;;;5107162;27;51406;-53
2022/04/25 07:30:04;;;;;;;;;47.75;40.50;;;;;;;;5115075;27;51154;-50
2022/04/25 07:32:29;;;;;;;;;49.25;42.00;;;;;;;;5114597;27;52455;-53
2022/04/25 07:34:54;;;;;;;;;49.50;42.00;;;;;;;;5114754;27;51082;-51
2022/04/25 07:37:23;;;;;;;;;48.75;41.00;;;;;;;;5095408;27;54126;-51
2022/04/25 07:39:49;;;;;;;;;48.00;41.00;;;;;;;;5114218;27;51298;-49
2022/04/25 07:42:15;;;;;;;;;51.50;43.50;;;;;;;;5107799;27;51127;-53
2022/04/25 07:44:41;;;;;;;;;52.50;43.00;;;;;;;;5112757;27;51075;-54
2022/04/25 07:47:06;;;;;;;;;51.75;43.00;;;;;;;;5114812;27;51075;-49
2022/04/25 07:49:34;;;;;;;;;49.00;41.00;;;;;;;;5114336;27;51267;-55
2022/04/25 07:51:59;;;;;;;;;47.00;37.25;;;;;;;;5114990;27;50992;-54
2022/04/25 07:54:25;;;;;;;;;43.75;37.00;;;;;;;;5114922;27;51129;-54
2022/04/25 07:56:51;;;;;;;;;42.75;37.00;;;;;;;;5114576;27;51204;-52
2022/04/25 07:59:16;;;;;;;;;47.00;40.25;;;;;;;;5096193;27;51287;-54
2022/04/25 08:01:42;;;;;;;;;48.00;39.50;;;;;;;;5114386;27;52182;-51
2022/04/25 08:04:07;;;;;;;;;49.00;40.50;;;;;;;;5114379;27;50946;-51
2022/04/25 08:06:32;;;;;;;;;48.00;39.75;;;;;;;;5114922;27;51234;-54
2022/04/25 08:08:58;;;;;;;;;46.00;38.50;;;;;;;;5114519;27;51261;-54
2022/04/25 08:11:23;;;;;;;;;48.25;40.50;;;;;;;;5114035;27;52119;-52
2022/04/25 08:19:17;;;;;;;;;47.00;40.00;;;;;;;;5106263;27;51117;-52
2022/04/25 08:21:44;;;;;;;;;47.00;40.00;;;;;;;;5112088;27;52861;-51
2022/04/25 08:24:10;;;;;;;;;46.75;40.25;;;;;;;;5117336;27;50836;-52
2022/04/25 08:26:36;;;;;;;;;48.00;41.00;;;;;;;;5120610;27;52530;-54
2022/04/25 08:29:01;;;;;;;;;47.00;40.00;;;;;;;;5118326;27;51084;-53
2022/04/25 08:31:27;;;;;;;;;46.75;38.25;;;;;;;;5092377;27;52625;-51
2022/04/25 08:33:53;;;;;;;;;46.25;37.25;;;;;;;;5112385;27;52687;-53
2022/04/25 08:36:18;;;;;;;;;41.25;35.75;;;;;;;;5116027;27;50923;-50
2022/04/25 08:38:44;;;;;;;;;43.75;37.75;;;;;;;;5109729;27;51150;-53
2022/04/25 08:41:17;;;;;;;;;47.75;39.25;;;;;;;;5110597;27;51919;-51
2022/04/25 08:43:43;;;;;;;;;48.75;40.00;;;;;;;;5115628;27;50869;-51
2022/04/25 08:46:09;;;;;;;;;48.00;40.50;;;;;;;;5113405;27;51058;-53
2022/04/25 08:48:35;;;;;;;;;51.25;40.75;;;;;;;;5112341;27;51078;-53
2022/04/25 08:51:01;;;;;;;;;47.50;40.00;;;;;;;;5114045;27;51921;-54
2022/04/25 08:53:26;;;;;;;;;46.00;38.75;;;;;;;;5113317;27;51109;-53
2022/04/25 08:55:54;;;;;;;;;46.00;39.50;;;;;;;;5114414;27;51045;-50
2022/04/25 08:58:20;;;;;;;;;47.50;40.75;;;;;;;;5114625;27;51369;-54
2022/04/25 09:00:45;;;;;;;;;45.00;37.75;;;;;;;;5114215;27;51804;-53
2022/04/25 09:03:12;;;;;;;;;45.00;38.00;;;;;;;;5112802;27;50947;-54
2022/04/25 09:05:38;;;;;;;;;43.50;37.50;;;;;;;;5113910;27;51032;-54
2022/04/25 09:08:03;;;;;;;;;45.75;38.00;;;;;;;;5114817;27;51483;-55
2022/04/25 09:10:29;;;;;;;;;44.25;37.00;;;;;;;;5114206;27;52036;-56
2022/04/25 09:12:55;;;;;;;;;44.50;38.50;;;;;;;;5114234;27;51048;-52
2022/04/25 09:15:21;;;;;;;;;41.25;35.00;;;;;;;;5095562;27;51082;-54
2022/04/25 09:17:47;;;;;;;;;48.00;40.50;;;;;;;;5114472;27;50952;-54
2022/04/25 09:20:12;;;;;;;;;44.50;38.75;;;;;;;;5106805;27;51726;-53
2022/04/25 09:22:41;;;;;;;;;47.00;37.75;;;;;;;;5113379;27;51121;-54
2022/04/25 09:25:08;;;;;;;;;42.25;36.25;;;;;;;;5113652;27;51054;-52
2022/04/25 09:27:33;;;;;;;;;37.75;34.50;;;;;;;;5112834;27;51119;-53
2022/04/25 09:30:12;;;;;;;;;41.75;36.25;;;;;;;;5112747;27;51606;-51
2022/04/25 09:32:37;;;;;;;;;35.50;33.25;;;;;;;;5113543;27;51031;-53
2022/04/25 09:35:21;;;;;;;;;37.75;34.50;;;;;;;;5113514;27;51076;-52
2022/04/25 09:37:47;;;;;;;;;38.00;33.25;;;;;;;;5114264;27;51826;-54
2022/04/25 09:40:17;;;;;;;;;37.50;33.25;;;;;;;;5097600;27;51974;-54
2022/04/25 09:42:43;;;;;;;;;36.25;33.00;;;;;;;;5112871;27;50913;-55
2022/04/25 09:45:08;;;;;;;;;42.25;36.00;;;;;;;;5112277;27;51225;-53
2022/04/25 09:47:36;;;;;;;;;35.00;32.25;;;;;;;;5113520;27;51092;-54
2022/04/25 09:50:03;;;;;;;;;35.50;32.75;;;;;;;;5111971;27;51905;-54
2022/04/25 09:52:29;;;;;;;;;43.50;36.25;;;;;;;;5094648;27;51070;-54
2022/04/25 09:54:56;;;;;;;;;35.50;32.00;;;;;;;;5113621;27;50957;-54
2022/04/25 09:57:28;;;;;;;;;35.50;32.75;;;;;;;;5113792;27;51590;-55
2022/04/25 09:59:56;;;;;;;;;49.00;41.75;;;;;;;;5113005;27;51079;-55
2022/04/25 10:02:21;;;;;;;;;35.00;32.75;;;;;;;;5113394;27;51087;-54
2022/04/25 10:04:46;;;;;;;;;37.00;33.75;;;;;;;;5118517;27;50980;-54
2022/04/25 10:07:12;;;;;;;;;37.75;32.50;;;;;;;;5120483;27;51301;-54
2022/04/25 10:09:37;;;;;;;;;42.50;35.50;;;;;;;;5120181;27;52221;-54
2022/04/25 10:12:03;;;;;;;;;40.50;35.25;;;;;;;;5101610;27;50902;-54
2022/04/25 10:14:29;;;;;;;;;46.00;38.50;;;;;;;;5120320;27;50769;-54
2022/04/25 10:16:56;;;;;;;;;33.75;32.25;;;;;;;;5120626;27;51003;-54
2022/04/25 10:19:21;;;;;;;;;33.75;32.00;;;;;;;;5089599;27;51978;-54
2022/04/25 10:21:47;;;;;;;;;40.25;35.00;;;;;;;;5119198;27;51011;-55
2022/04/25 10:24:15;;;;;;;;;36.25;33.00;;;;;;;;5120180;27;51105;-52
2022/04/25 10:26:40;;;;;;;;;38.50;33.25;;;;;;;;5120587;27;50841;-54
2022/04/25 10:29:08;;;;;;;;;34.75;32.25;;;;;;;;5119602;27;52097;-52
2022/04/25 10:31:44;;;;;;;;;32.50;30.50;;;;;;;;5120221;27;50984;-53
2022/04/25 10:34:10;;;;;;;;;34.25;30.25;;;;;;;;5119486;27;51047;-54
2022/04/25 10:36:38;;;;;;;;;28.25;28.00;;;;;;;;5120085;27;51334;-54
2022/04/25 10:39:23;;;;;;;;;30.25;29.50;;;;;;;;5113016;27;51962;-53
2022/04/25 10:44:40;;;;;;;;;34.50;32.25;;;;;;;;5119456;27;51060;-55
2022/04/25 10:47:05;;;;;;;;;30.25;30.00;;;;;;;;5119605;27;51163;-54
2022/04/25 10:49:37;;;;;;;;;30.00;29.75;;;;;;;;5118445;27;52630;-51
2022/04/25 10:52:04;;;;;;;;;26.50;26.00;;;;;;;;5119178;27;51131;-51
2022/04/25 10:54:48;;;;;;;;;31.75;28.75;;;;;;;;5119839;27;51160;-54
2022/04/25 10:57:14;;;;;;;;;27.50;27.50;;;;;;;;5119477;27;50855;-52
2022/04/25 10:59:39;;;;;;;;;26.00;24.75;;;;;;;;5119330;27;51144;-54
2022/04/25 11:02:24;;;;;;;;;21.50;20.75;;;;;;;;5119192;27;51160;-55
2022/04/25 11:05:08;;;;;;;;;24.00;23.75;;;;;;;;5119471;27;51074;-54
2022/04/25 11:07:35;;;;;;;;;21.00;20.25;;;;;;;;5120296;27;50948;-54
2022/04/25 11:10:00;;;;;;;;;20.00;20.00;;;;;;;;5100654;27;52897;-51
2022/04/25 11:12:44;;;;;;;;;22.25;21.25;;;;;;;;5119209;27;51000;-53
2022/04/25 11:15:09;;;;;;;;;24.25;22.50;;;;;;;;5098381;27;51326;-53
2022/04/25 11:17:35;;;;;;;;;24.00;23.25;;;;;;;;5106996;27;51228;-54
2022/04/25 11:20:00;;;;;;;;;23.25;23.00;;;;;;;;5114145;27;51855;-52
2022/04/25 11:22:29;;;;;;;;;20.50;19.00;;;;;;;;5115061;27;51094;-50
2022/04/25 11:24:54;;;;;;;;;23.00;22.00;;;;;;;;5097132;27;51109;-49
2022/04/25 11:27:21;;;;;;;;;21.25;21.00;;;;;;;;5115933;27;51437;-52
2022/04/25 11:30:06;;;;;;;;;22.00;22.00;;;;;;;;5114426;27;52308;-54
2022/04/25 11:32:38;;;;;;;;;65.50;54.50;;;;;;;;5115340;27;50820;-53
2022/04/25 11:35:03;;;;;;;;;25.00;22.25;;;;;;;;5115548;27;50966;-56
2022/04/25 11:37:30;;;;;;;;;24.00;22.50;;;;;;;;5115418;27;51280;-54
2022/04/25 11:39:57;;;;;;;;;18.75;18.75;;;;;;;;5101588;27;51875;-51
2022/04/25 11:42:24;;;;;;;;;22.25;19.50;;;;;;;;5111600;27;50945;-53
2022/04/25 11:44:49;;;;;;;;;23.00;22.25;;;;;;;;5113758;27;51181;-53
2022/04/25 11:47:18;;;;;;;;;22.50;22.00;;;;;;;;5114870;27;51334;-52
2022/04/25 11:49:43;;;;;;;;;19.50;19.50;;;;;;;;5096617;27;53137;-54
2022/04/25 11:52:13;;;;;;;;;20.75;20.25;;;;;;;;5115342;27;51097;-54
2022/04/25 11:54:40;;;;;;;;;19.25;18.25;;;;;;;;5115835;27;51066;-53
2022/04/25 11:57:05;;;;;;;;;14.50;14.00;;;;;;;;5115677;27;51021;-53
2022/04/25 11:59:31;;;;;;;;;16.00;15.50;;;;;;;;5115152;27;51088;-52
2022/04/25 12:01:56;;;;;;;;;17.00;16.75;;;;;;;;5115162;27;50891;-54
2022/04/25 12:04:23;;;;;;;;;21.75;20.75;;;;;;;;5115077;27;50921;-55
2022/04/25 12:06:48;;;;;;;;;13.50;13.00;;;;;;;;5115654;27;51004;-53
2022/04/25 12:17:45;;;;;;;;;12.33;12.33;;;;;;;;5106377;27;51096;-55
2022/04/25 12:20:12;;;;;;;;;17.00;15.00;;;;;;;;5114750;27;52028;-52
2022/04/25 12:22:38;;;;;;;;;14.50;13.00;;;;;;;;5096139;27;50947;-55
2022/04/25 12:25:14;;;;;;;;;15.25;14.00;;;;;;;;5114801;27;51080;-52
2022/04/25 12:27:56;;;;;;;;;12.67;12.00;;;;;;;;5096226;27;51011;-54
2022/04/25 12:30:21;;;;;;;;;14.33;13.00;;;;;;;;5114720;27;51806;-54
2022/04/25 12:32:47;;;;;;;;;12.33;12.33;;;;;;;;5114543;27;51542;-51
2022/04/25 12:35:18;;;;;;;;;11.67;11.67;;;;;;;;5114847;27;51184;-55
2022/04/25 12:37:44;;;;;;;;;9.00;8.00;;;;;;;;5115103;27;50835;-55
2022/04/25 12:40:10;;;;;;;;;12.25;12.25;;;;;;;;5099094;27;51004;-54
2022/04/25 12:42:46;;;;;;;;;13.25;11.50;;;;;;;;5112683;27;51184;-54
2022/04/25 12:45:11;;;;;;;;;14.25;14.00;;;;;;;;5114713;27;51081;-51
2022/04/25 12:47:37;;;;;;;;;9.33;9.33;;;;;;;;5095754;27;51296;-55
2022/04/25 12:50:03;;;;;;;;;11.25;11.00;;;;;;;;5114543;27;53010;-53
2022/04/25 12:52:44;;;;;;;;;9.67;9.67;;;;;;;;5096033;27;50980;-55
2022/04/25 12:55:09;;;;;;;;;8.33;8.33;;;;;;;;5114517;27;51028;-52
2022/04/25 12:57:34;;;;;;;;;9.00;8.00;;;;;;;;5114585;27;51280;-55
2022/04/25 13:00:00;;;;;;;;;11.00;10.00;;;;;;;;5113883;27;51154;-51
2022/04/25 13:02:32;;;;;;;;;11.33;11.00;;;;;;;;5114381;27;51121;-54
2022/04/25 13:04:57;;;;;;;;;13.00;11.25;;;;;;;;5113908;27;50923;-55
2022/04/25 13:07:31;;;;;;;;;11.00;11.00;;;;;;;;5114117;27;51089;-56
2022/04/25 13:09:57;;;;;;;;;15.50;12.50;;;;;;;;5113913;27;51483;-54
2022/04/25 13:12:23;;;;;;;;;10.50;10.50;;;;;;;;5114029;27;51073;-53
2022/04/25 13:14:49;;;;;;;;;11.75;11.75;;;;;;;;5108380;27;51068;-53
2022/04/25 13:17:14;;;;;;;;;22.25;18.50;;;;;;;;5114273;27;50889;-51
2022/04/25 13:19:40;;;;;;;;;13.25;12.00;;;;;;;;5113549;27;51401;-54
2022/04/25 13:22:05;;;;;;;;;5.33;5.33;;;;;;;;5114362;27;51120;-53
2022/04/25 13:24:31;;;;;;;;;11.00;11.00;;;;;;;;5114042;27;51096;-54
2022/04/25 13:26:57;;;;;;;;;11.50;11.50;;;;;;;;5114026;27;50914;-52
2022/04/25 13:29:22;;;;;;;;;12.00;12.00;;;;;;;;5113255;27;51715;-52
2022/04/25 13:31:47;;;;;;;;;10.00;10.00;;;;;;;;5114290;27;51016;-53
2022/04/25 13:34:13;;;;;;;;;11.25;10.25;;;;;;;;5113634;27;51119;-53
2022/04/25 13:36:38;;;;;;;;;11.00;10.00;;;;;;;;5114261;27;51258;-54
2022/04/25 13:39:03;;;;;;;;;10.00;10.00;;;;;;;;5106669;27;50984;-52
2022/04/25 13:41:29;;;;;;;;;7.00;6.00;;;;;;;;5102498;27;51054;-55
2022/04/25 13:43:54;;;;;;;;;9.00;9.00;;;;;;;;5113716;27;51030;-55
2022/04/25 13:46:20;;;;;;;;;14.33;13.67;;;;;;;;5111478;27;50944;-54
2022/04/25 13:48:45;;;;;;;;;10.75;10.00;;;;;;;;5112820;27;50887;-54
2022/04/25 13:51:10;;;;;;;;;9.67;9.00;;;;;;;;5113255;27;50974;-55
2022/04/25 13:53:35;;;;;;;;;8.00;8.00;;;;;;;;5113701;27;51337;-55
2022/04/25 13:56:03;;;;;;;;;9.00;8.67;;;;;;;;5113657;27;51055;-53
2022/04/25 13:58:29;;;;;;;;;7.67;7.33;;;;;;;;5113377;27;51986;-51
2022/04/25 14:00:54;;;;;;;;;10.00;10.00;;;;;;;;5113366;27;50988;-52
2022/04/25 14:03:21;;;;;;;;;6.00;6.00;;;;;;;;5113081;27;51057;-53
2022/04/25 14:05:48;;;;;;;;;8.00;7.00;;;;;;;;5113892;27;51043;-56
2022/04/25 14:08:13;;;;;;;;;6.00;5.67;;;;;;;;5113040;27;52745;-54
2022/04/25 14:10:45;;;;;;;;;8.33;7.00;;;;;;;;5113592;27;51124;-54
2022/04/25 14:13:11;;;;;;;;;7.67;7.00;;;;;;;;5106976;27;51045;-51
2022/04/25 14:15:37;;;;;;;;;7.33;6.00;;;;;;;;5113229;27;50988;-52
2022/04/25 14:18:04;;;;;;;;;7.67;7.67;;;;;;;;5111772;27;52119;-54
2022/04/25 14:20:30;;;;;;;;;8.00;7.00;;;;;;;;5113045;27;51039;-52
2022/04/25 14:22:56;;;;;;;;;7.00;7.00;;;;;;;;5112956;27;51044;-54
2022/04/25 14:25:22;;;;;;;;;7.67;7.00;;;;;;;;5113403;27;50909;-56
2022/04/25 14:27:47;;;;;;;;;6.33;5.67;;;;;;;;5112474;27;51115;-53
2022/04/25 14:30:12;;;;;;;;;6.00;6.00;;;;;;;;5113069;27;50940;-58
2022/04/25 14:32:37;;;;;;;;;6.00;6.00;;;;;;;;5112698;27;50811;-55
2022/04/25 14:35:03;;;;;;;;;6.00;6.00;;;;;;;;5113288;27;50880;-53
2022/04/25 14:37:29;;;;;;;;;5.00;5.00;;;;;;;;5112830;27;51965;-55
2022/04/25 14:39:54;;;;;;;;;5.00;5.00;;;;;;;;5099427;27;50953;-55
2022/04/25 14:42:19;;;;;;;;;7.33;7.33;;;;;;;;5090464;27;51021;-54
2022/04/25 14:44:44;;;;;;;;;10.00;9.33;;;;;;;;5113173;27;51428;-54
2022/04/25 14:47:10;;;;;;;;;6.00;6.00;;;;;;;;5112541;27;52255;-53
2022/04/25 14:55:03;;;;;;;;;6.00;6.00;;;;;;;;5115996;27;51118;-52